Accueil
METAR-TAF:

METAR-TAF

Aéroports :

Anvers, Belgique

Aéroport d'Anvers

latitude: 51-12N, longitude: 004-28E, altitude: 12 m

Observation

Le bulletin a été fait il y a 18 minutes, à 18:20 UTC
Vent 2 kt de direction variable
Température 13°C
Humidité 88%
Pression 1018 hPa
Visibilité: 9000 m
Quelques nuages à une hauteur de 4000 ft

METAR: EBAW 171820Z VRB02KT 9000 FEW040 13/11 Q1018 NOSIG

Heure: 20:38 (18:38 UTC)

Prévision

Le bulletin a été fait il y a 1 heure et 37 minutes, à 17:01 UTC
Prévision valable du 17 à 18 UTC au 18 à 03 UTC
Vent 3 kt de est/nord-est
Visibilité 10 km ou plus
Nuages épars à une hauteur de 2000 ft
Temporairement
du 18 à 01 UTC au 18 à 03 UTC
Visibilité: 3500 m
brume

TAF: EBAW 171701Z 1718/1803 06003KT 9999 SCT020 TEMPO 1801/1803 3500 BR

Observations et prévisions météorologiques de plus de 4000 aéroports (messages METAR et TAF).

Les stations disponibles sont représentées par des disques jaunes et rouges sur la carte.

Passer la souris dessus pour voir le nom de la station.

Cliquer dessus pour voir les observations et prévisions météorologiques.

Pour changer de carte: cliquez sur les boutons verts avec une croix noire pour zoomer, sur le bouton vert avec un tiret pour effectuer un zoom arrière, ou sur les flèches vertes pour les cartes adjacentes.


METAR-TAF: